Terminal Aerodrome Forecast
Issued by NWS

Home | Current Version | Previous Version | Text Only | Print | Product List | Glossary On
Versions: 1 2 3 4 5 6 7 8 9 10 11 12 13 14 15 16 17 18
000
FTUS45 KGJT 270229 AAB
TAFRIL
TAF AMD
KRIL 270229Z 2702/2724 33010G18KT P6SM VCTS BKN140CB
      TEMPO 2702/2706 TSRA BKN080CB
     FM270600 14004KT P6SM VCTS BKN150CB
     FM271000 00000KT P6SM VCSH SCT120
     FM271900 28006KT P6SM VCTS BKN110CB
     FM272100 27010G18KT P6SM VCTS BKN110CB=

USA.gov is the U.S. government's official web portal to all federal, state and local government web resources and services.